Terminal Aerodrome Forecast
Issued by NWS

Home | Current Version | Previous Version | Text Only | Print | Product List | Glossary On
Versions: 1 2 3 4 5 6 7 8 9 10 11 12 13 14 15 16
223
FTUS43 KGRR 232322
TAFBTL
TAF
KBTL 232322Z 2400/2424 12010G14KT P6SM BKN070 BKN250
     FM240500 12005KT P6SM VCSH OVC035
     FM240900 10005KT 5SM -SHRA BR OVC015
     FM241100 08005KT 4SM -SHRA BR OVC008
     FM241800 07005KT 1 1/2SM BR VCSH OVC007=

USA.gov is the U.S. government's official web portal to all federal, state and local government web resources and services.